Time;durP1;ratioP1;P1;durP2;ratioP2;P2;SDS_P1;SDS_P2;PMS_P1;PMS_P2;Temp;Humidity;BMP_temperature;BMP_pressure;BME280_temperature;BME280_humidity;BME280_pressure;Samples;Min_cycle;Max_cycle;Signal;HPM_P1;HPM_P2
2023/10/22 00:01:57;;;;;;;2.65;1.30;;;;;;;11.71;100.00;99544.63;4985663;28;20037;-71
2023/10/22 00:04:22;;;;;;;3.22;1.63;;;;;;;11.69;100.00;99551.88;5001904;28;20026;-68
2023/10/22 00:06:48;;;;;;;3.20;1.20;;;;;;;11.70;100.00;99540.25;4985928;28;20022;-69
2023/10/22 00:09:13;;;;;;;3.17;1.25;;;;;;;11.69;100.00;99543.88;5002963;28;20030;-69
2023/10/22 00:11:38;;;;;;;2.47;1.20;;;;;;;11.68;100.00;99551.03;5003485;28;20141;-70
2023/10/22 00:14:04;;;;;;;3.28;1.35;;;;;;;11.75;100.00;99554.09;5000737;28;20496;-69
2023/10/22 00:16:29;;;;;;;2.67;1.20;;;;;;;11.76;100.00;99553.13;5003312;28;20025;-69
2023/10/22 00:18:55;;;;;;;4.45;1.30;;;;;;;11.77;100.00;99560.13;4985039;28;20488;-69
2023/10/22 00:21:20;;;;;;;1.92;1.35;;;;;;;11.76;100.00;99563.78;5007506;28;20452;-69
2023/10/22 00:23:45;;;;;;;2.40;1.45;;;;;;;11.77;100.00;99557.47;4999767;28;20037;-69
2023/10/22 00:26:14;;;;;;;2.85;1.20;;;;;;;11.81;100.00;99577.59;5003126;28;20262;-69
2023/10/22 00:28:39;;;;;;;3.72;1.48;;;;;;;11.80;100.00;99570.56;5002348;28;20037;-70
2023/10/22 00:31:04;;;;;;;2.95;1.58;;;;;;;11.84;100.00;99584.56;5002878;28;20076;-70
2023/10/22 00:33:30;;;;;;;2.47;1.20;;;;;;;11.86;100.00;99588.78;5001255;28;20032;-69
2023/10/22 00:35:56;;;;;;;2.17;1.27;;;;;;;11.83;100.00;99591.72;5001934;28;20026;-69
2023/10/22 00:38:22;;;;;;;2.33;1.30;;;;;;;11.89;100.00;99596.56;4982540;28;20520;-68
2023/10/22 00:40:47;;;;;;;3.33;1.58;;;;;;;11.91;100.00;99605.31;5001639;28;20041;-68
2023/10/22 00:43:12;;;;;;;2.85;1.35;;;;;;;11.88;100.00;99591.34;4980170;28;20092;-68
2023/10/22 00:45:38;;;;;;;2.08;1.52;;;;;;;11.90;100.00;99608.06;4991045;28;20446;-70
2023/10/22 00:48:05;;;;;;;2.20;1.40;;;;;;;11.88;100.00;99602.03;4975835;28;20151;-68
2023/10/22 00:50:30;;;;;;;4.07;1.30;;;;;;;11.91;100.00;99605.31;4996714;28;20057;-69
2023/10/22 00:52:56;;;;;;;1.98;1.30;;;;;;;11.92;100.00;99604.34;4999575;28;20061;-69
2023/10/22 00:55:22;;;;;;;3.03;1.20;;;;;;;11.90;100.00;99614.25;5001235;28;20044;-68
2023/10/22 00:57:47;;;;;;;2.83;1.50;;;;;;;11.91;100.00;99618.66;5001699;28;20038;-69
2023/10/22 01:00:13;;;;;;;2.63;1.58;;;;;;;11.89;100.00;99615.22;5001524;28;20183;-68
2023/10/22 01:02:39;;;;;;;2.92;1.60;;;;;;;11.93;100.00;99627.38;5001410;28;20029;-69
2023/10/22 01:05:05;;;;;;;2.67;1.30;;;;;;;11.94;100.00;99614.88;4999932;28;20519;-68
2023/10/22 01:07:32;;;;;;;2.22;1.30;;;;;;;11.95;100.00;99624.56;4998899;28;20025;-69
2023/10/22 01:09:57;;;;;;;2.33;1.40;;;;;;;11.96;100.00;99627.13;4991241;28;20034;-68
2023/10/22 01:12:22;;;;;;;3.03;1.35;;;;;;;11.92;100.00;99625.66;4999207;28;20499;-69
2023/10/22 01:14:47;;;;;;;2.70;1.23;;;;;;;11.88;100.00;99628.69;5000546;28;20033;-68
2023/10/22 01:17:13;;;;;;;2.55;1.40;;;;;;;11.84;100.00;99629.88;4995824;28;20044;-69
2023/10/22 01:19:41;;;;;;;2.75;1.25;;;;;;;11.84;100.00;99636.06;4999455;28;20025;-70
2023/10/22 01:22:07;;;;;;;3.60;1.52;;;;;;;11.73;100.00;99623.50;4983599;28;20381;-69
2023/10/22 01:24:33;;;;;;;3.10;1.20;;;;;;;11.84;100.00;99640.53;5001662;28;20072;-68
2023/10/22 01:26:59;;;;;;;2.72;1.30;;;;;;;11.83;100.00;99642.38;5001596;28;20160;-69
2023/10/22 01:29:24;;;;;;;2.88;1.20;;;;;;;11.80;100.00;99645.22;5000974;28;20445;-70
2023/10/22 01:31:49;;;;;;;2.53;1.48;;;;;;;11.77;100.00;99639.25;5001765;28;20088;-67
2023/10/22 01:34:15;;;;;;;4.03;1.27;;;;;;;11.77;100.00;99652.59;5000960;28;20033;-69
2023/10/22 01:36:41;;;;;;;3.35;1.20;;;;;;;11.71;100.00;99644.09;4984565;28;20570;-70
2023/10/22 01:39:12;;;;;;;2.53;1.48;;;;;;;11.68;100.00;99657.66;5002377;28;20049;-68
2023/10/22 01:41:41;;;;;;;3.65;1.10;;;;;;;11.61;100.00;99655.53;4999323;28;20211;-70
2023/10/22 01:44:07;;;;;;;2.33;1.27;;;;;;;11.64;100.00;99664.16;4999564;28;20022;-68
2023/10/22 01:46:32;;;;;;;2.55;1.20;;;;;;;11.67;100.00;99666.63;4976286;28;20038;-69
2023/10/22 01:48:58;;;;;;;3.40;1.30;;;;;;;11.69;100.00;99663.81;4979250;28;20053;-70
2023/10/22 01:51:23;;;;;;;3.15;1.40;;;;;;;11.73;100.00;99673.28;4979427;28;20026;-69
2023/10/22 01:53:48;;;;;;;2.05;1.05;;;;;;;11.76;100.00;99672.22;4976020;28;20026;-70
2023/10/22 01:56:14;;;;;;;1.77;1.30;;;;;;;11.78;100.00;99681.78;4978201;28;20492;-69
2023/10/22 01:58:40;;;;;;;1.52;1.15;;;;;;;11.77;100.00;99680.09;4977400;28;20101;-68
2023/10/22 02:01:06;;;;;;;3.67;1.20;;;;;;;11.77;100.00;99677.44;4981933;28;20057;-69
2023/10/22 02:03:35;;;;;;;2.38;1.10;;;;;;;11.77;100.00;99685.44;4979194;28;20037;-69
2023/10/22 02:06:01;;;;;;;2.20;1.05;;;;;;;11.77;100.00;99698.75;4977751;28;20110;-70
2023/10/22 02:08:26;;;;;;;3.55;1.13;;;;;;;11.76;100.00;99693.56;4980306;28;20038;-68
2023/10/22 02:10:52;;;;;;;2.38;1.33;;;;;;;11.73;100.00;99698.13;4981350;28;20560;-67
2023/10/22 02:13:17;;;;;;;3.33;1.30;;;;;;;11.68;100.00;99710.09;4977970;28;20045;-69
2023/10/22 02:15:43;;;;;;;3.95;1.60;;;;;;;11.54;100.00;99710.28;4980771;28;20026;-69
2023/10/22 02:18:09;;;;;;;3.13;1.55;;;;;;;11.41;100.00;99724.50;4981408;28;20442;-70
2023/10/22 02:20:34;;;;;;;3.72;1.58;;;;;;;11.26;100.00;99717.59;4979593;28;20039;-68
2023/10/22 02:23:01;;;;;;;4.28;1.63;;;;;;;11.14;100.00;99734.44;4978646;28;20029;-69
2023/10/22 02:25:27;;;;;;;4.40;1.50;;;;;;;10.96;100.00;99725.94;4981099;28;20038;-70
2023/10/22 02:27:53;;;;;;;1.88;1.30;;;;;;;10.91;100.00;99736.03;4979470;28;20088;-69
2023/10/22 02:30:18;;;;;;;2.85;1.50;;;;;;;10.82;100.00;99737.53;4981032;28;20022;-70
2023/10/22 02:32:44;;;;;;;4.25;1.60;;;;;;;10.81;100.00;99737.66;4981423;28;20188;-71
2023/10/22 02:35:10;;;;;;;4.93;2.00;;;;;;;10.73;100.00;99743.50;4981706;28;20034;-71
2023/10/22 02:37:36;;;;;;;3.70;1.70;;;;;;;10.65;100.00;99746.69;4978926;28;20026;-69
2023/10/22 02:40:01;;;;;;;4.70;2.03;;;;;;;10.64;100.00;99749.47;4981798;28;20041;-69
2023/10/22 02:42:27;;;;;;;3.53;1.75;;;;;;;10.64;100.00;99762.75;4979184;28;20034;-69
2023/10/22 02:44:52;;;;;;;2.78;1.73;;;;;;;10.61;100.00;99765.63;4978505;28;20450;-69
2023/10/22 02:47:18;;;;;;;2.45;1.70;;;;;;;10.60;100.00;99772.75;4977927;28;20046;-69
2023/10/22 02:49:43;;;;;;;2.72;1.90;;;;;;;10.59;100.00;99775.53;4980606;28;20037;-70
2023/10/22 02:52:09;;;;;;;3.63;1.65;;;;;;;10.57;100.00;99785.41;4980974;28;20077;-69
2023/10/22 02:54:35;;;;;;;4.40;1.90;;;;;;;10.57;100.00;99790.75;4980935;28;20420;-69
2023/10/22 02:57:00;;;;;;;3.03;1.88;;;;;;;10.55;100.00;99792.66;4978246;28;20280;-69
2023/10/22 02:59:25;;;;;;;3.03;1.45;;;;;;;10.52;100.00;99793.72;4977414;28;20500;-68
2023/10/22 03:01:51;;;;;;;2.05;1.67;;;;;;;10.50;100.00;99800.97;4980702;28;20026;-69
2023/10/22 03:04:16;;;;;;;3.33;1.90;;;;;;;10.49;100.00;99801.88;4979215;28;20022;-69
2023/10/22 03:06:42;;;;;;;4.82;2.35;;;;;;;10.51;100.00;99809.78;4977768;28;20460;-68
2023/10/22 03:09:07;;;;;;;3.35;1.80;;;;;;;10.48;100.00;99805.50;4979762;28;20770;-68
2023/10/22 03:11:32;;;;;;;6.03;2.17;;;;;;;10.38;100.00;99791.97;4975111;28;20473;-68
2023/10/22 03:13:58;;;;;;;4.38;2.00;;;;;;;10.47;100.00;99811.78;4981083;28;20113;-69
2023/10/22 03:16:23;;;;;;;4.30;1.83;;;;;;;10.48;100.00;99821.47;4981560;28;20448;-69
2023/10/22 03:18:50;;;;;;;5.10;2.13;;;;;;;10.50;100.00;99824.06;4981487;28;20030;-69
2023/10/22 03:21:24;;;;;;;4.32;2.08;;;;;;;10.50;100.00;99832.88;4983486;28;20030;-70
2023/10/22 03:23:49;;;;;;;3.50;2.00;;;;;;;10.48;100.00;99832.97;4985263;28;20097;-69
2023/10/22 03:26:16;;;;;;;5.60;2.08;;;;;;;10.45;100.00;99841.16;4983206;28;20034;-69
2023/10/22 03:28:45;;;;;;;6.50;2.35;;;;;;;10.49;100.00;99849.78;4980822;28;20437;-67
2023/10/22 03:31:12;;;;;;;3.70;2.45;;;;;;;10.50;100.00;99858.63;4982480;28;20105;-70
2023/10/22 03:33:37;;;;;;;2.85;1.80;;;;;;;10.53;100.00;99861.06;4981577;28;20145;-68
2023/10/22 03:36:09;;;;;;;3.83;2.03;;;;;;;10.52;100.00;99876.19;4983679;28;20117;-68
2023/10/22 03:38:34;;;;;;;4.00;1.90;;;;;;;10.51;100.00;99885.13;4983141;28;20049;-69
2023/10/22 03:41:04;;;;;;;3.20;1.88;;;;;;;10.52;100.00;99885.97;4984495;28;20061;-69
2023/10/22 03:43:30;;;;;;;3.47;1.95;;;;;;;10.53;100.00;99893.00;4984606;28;20313;-68
2023/10/22 03:45:57;;;;;;;3.17;2.25;;;;;;;10.49;100.00;99897.66;4984871;28;20022;-69
2023/10/22 03:48:23;;;;;;;3.75;2.50;;;;;;;10.47;100.00;99897.78;5001283;28;20042;-69
2023/10/22 03:50:49;;;;;;;3.35;2.15;;;;;;;10.43;100.00;99900.75;5003982;28;20137;-69
2023/10/22 03:53:14;;;;;;;2.97;2.38;;;;;;;10.37;100.00;99907.31;5002862;28;20128;-70
2023/10/22 03:55:40;;;;;;;2.83;2.33;;;;;;;10.30;100.00;99913.97;5003866;28;20323;-69
2023/10/22 03:58:06;;;;;;;3.97;3.05;;;;;;;10.31;100.00;99930.78;5003666;28;20025;-70
2023/10/22 04:00:32;;;;;;;3.67;2.85;;;;;;;10.30;100.00;99935.25;4998351;28;20029;-70
2023/10/22 04:02:58;;;;;;;5.03;3.10;;;;;;;10.26;100.00;99933.75;4995438;28;20286;-68
2023/10/22 04:05:24;;;;;;;6.32;3.40;;;;;;;10.22;100.00;99942.84;4998949;28;20042;-70
2023/10/22 04:07:49;;;;;;;5.20;3.03;;;;;;;10.20;100.00;99940.28;4996577;28;20030;-69
2023/10/22 04:10:15;;;;;;;5.28;3.10;;;;;;;10.23;100.00;99955.19;4995604;28;20029;-68
2023/10/22 04:12:40;;;;;;;5.82;2.80;;;;;;;10.21;100.00;99952.63;4997876;28;20033;-69
2023/10/22 04:15:07;;;;;;;4.85;3.40;;;;;;;10.25;100.00;99950.66;5001442;28;20029;-70
2023/10/22 04:17:32;;;;;;;4.43;3.40;;;;;;;10.26;100.00;99963.00;5000728;28;20054;-69
2023/10/22 04:19:57;;;;;;;4.88;3.38;;;;;;;10.29;100.00;99960.16;4980310;28;20080;-68
2023/10/22 04:22:23;;;;;;;4.80;3.33;;;;;;;10.27;100.00;99967.38;5000064;28;20053;-69
2023/10/22 04:24:48;;;;;;;5.25;3.35;;;;;;;10.31;100.00;99973.34;4993788;28;20153;-70
2023/10/22 04:27:14;;;;;;;3.95;3.20;;;;;;;10.33;100.00;99976.78;4999166;28;20065;-68
2023/10/22 04:29:39;;;;;;;4.03;3.20;;;;;;;10.37;100.00;99983.63;4995408;28;20030;-69
2023/10/22 04:32:05;;;;;;;6.05;3.20;;;;;;;10.36;100.00;99982.72;4996262;28;20025;-68
2023/10/22 04:34:33;;;;;;;4.20;3.00;;;;;;;10.37;100.00;99994.25;4998508;28;20396;-69
2023/10/22 04:36:58;;;;;;;6.07;2.97;;;;;;;10.31;100.00;99982.19;4997565;28;20037;-70
2023/10/22 04:39:24;;;;;;;4.50;3.15;;;;;;;10.35;100.00;99989.00;4997082;28;20488;-69
2023/10/22 04:41:50;;;;;;;3.33;2.85;;;;;;;10.26;100.00;99997.59;4997277;28;20030;-68
2023/10/22 04:44:15;;;;;;;4.60;3.40;;;;;;;10.19;100.00;100004.19;4997231;28;20446;-68
2023/10/22 04:46:41;;;;;;;4.18;3.00;;;;;;;10.13;100.00;100007.25;5000592;28;20069;-69
2023/10/22 04:49:06;;;;;;;4.15;3.17;;;;;;;10.07;100.00;100008.47;5002002;28;20076;-69
2023/10/22 04:51:31;;;;;;;6.38;3.20;;;;;;;10.08;100.00;100018.16;4997881;28;20026;-69
2023/10/22 04:53:57;;;;;;;5.40;3.00;;;;;;;10.06;100.00;100016.56;4997146;28;20034;-71
2023/10/22 04:56:22;;;;;;;7.30;2.90;;;;;;;10.03;100.00;100017.56;4983505;28;20160;-68
2023/10/22 04:58:48;;;;;;;4.63;2.90;;;;;;;9.92;100.00;100018.25;5001861;28;20036;-68
2023/10/22 05:01:13;;;;;;;4.57;3.10;;;;;;;9.92;100.00;100026.22;4997853;28;20029;-68
2023/10/22 05:03:39;;;;;;;5.95;2.92;;;;;;;9.92;100.00;100030.69;5000245;28;20171;-68
2023/10/22 05:06:06;;;;;;;3.90;2.47;;;;;;;9.89;100.00;100030.88;4997747;28;20045;-70
2023/10/22 05:08:34;;;;;;;5.05;2.50;;;;;;;9.85;100.00;100024.88;4993207;28;20057;-69
2023/10/22 05:10:59;;;;;;;4.15;3.13;;;;;;;9.80;100.00;100029.63;5000647;28;20034;-69
2023/10/22 05:13:25;;;;;;;3.00;2.70;;;;;;;9.76;100.00;100051.19;4997928;28;20091;-71
2023/10/22 05:15:52;;;;;;;5.00;3.22;;;;;;;9.75;100.00;100052.97;5000863;28;20131;-68
2023/10/22 05:18:17;;;;;;;3.65;2.65;;;;;;;9.68;100.00;100059.59;5000413;28;20068;-69
2023/10/22 05:20:42;;;;;;;4.97;2.60;;;;;;;9.65;100.00;100057.97;4997456;28;20058;-69
2023/10/22 05:23:08;;;;;;;5.07;2.67;;;;;;;9.65;100.00;100071.25;4993729;28;20087;-68
2023/10/22 05:25:33;;;;;;;4.78;2.55;;;;;;;9.62;100.00;100065.28;4999446;28;20042;-69
2023/10/22 05:27:58;;;;;;;5.55;2.35;;;;;;;9.59;100.00;100071.63;4998365;28;20046;-69
2023/10/22 05:30:24;;;;;;;5.30;2.40;;;;;;;9.51;100.00;100067.72;4996721;28;20110;-70
2023/10/22 05:32:50;;;;;;;5.25;2.60;;;;;;;9.53;100.00;100076.44;5000895;28;20034;-68
2023/10/22 05:35:16;;;;;;;3.75;2.60;;;;;;;9.51;100.00;100084.50;4998284;28;20057;-69
2023/10/22 05:37:43;;;;;;;6.68;2.40;;;;;;;9.49;100.00;100078.44;4994835;28;20052;-68
2023/10/22 05:40:14;;;;;;;3.50;2.22;;;;;;;9.47;100.00;100088.28;5000954;28;20119;-69
2023/10/22 05:42:43;;;;;;;4.40;2.25;;;;;;;9.43;100.00;100095.56;4983620;28;20500;-69
2023/10/22 05:45:09;;;;;;;4.93;2.65;;;;;;;9.39;100.00;100101.16;5001529;28;20057;-70
2023/10/22 05:47:35;;;;;;;2.88;2.30;;;;;;;9.33;100.00;100097.06;5001880;28;20061;-69
2023/10/22 05:50:01;;;;;;;3.78;2.25;;;;;;;9.38;100.00;100110.06;5001382;28;20032;-69
2023/10/22 05:52:28;;;;;;;4.85;2.17;;;;;;;9.40;100.00;100114.34;5000557;28;20400;-68
2023/10/22 05:54:54;;;;;;;4.03;2.35;;;;;;;9.37;100.00;100119.84;4997978;28;20034;-69
2023/10/22 05:57:21;;;;;;;4.05;1.85;;;;;;;9.40;100.00;100116.13;5001862;28;20032;-70
2023/10/22 05:59:46;;;;;;;4.03;2.30;;;;;;;9.38;100.00;100126.88;4999120;28;20492;-69
2023/10/22 06:02:12;;;;;;;4.28;2.40;;;;;;;9.36;100.00;100123.41;4992414;28;20025;-70
2023/10/22 06:04:37;;;;;;;4.13;2.20;;;;;;;9.37;100.00;100132.28;4992054;28;20270;-70
2023/10/22 06:07:04;;;;;;;2.85;1.92;;;;;;;9.29;100.00;100134.50;4999069;28;20493;-70
2023/10/22 06:09:29;;;;;;;4.60;2.10;;;;;;;9.28;100.00;100135.44;4994655;28;20124;-70
2023/10/22 06:11:54;;;;;;;3.53;2.20;;;;;;;9.32;100.00;100140.50;4998825;28;20113;-70
2023/10/22 06:14:20;;;;;;;3.72;1.83;;;;;;;9.36;100.00;100149.97;4996059;28;20068;-70
2023/10/22 06:16:45;;;;;;;2.83;2.10;;;;;;;9.41;100.00;100152.41;4995974;28;20049;-69
2023/10/22 06:19:13;;;;;;;3.80;1.80;;;;;;;9.47;100.00;100160.84;4999178;28;20411;-70
2023/10/22 06:21:39;;;;;;;3.53;2.03;;;;;;;9.52;100.00;100154.44;5000427;28;20096;-68
2023/10/22 06:24:06;;;;;;;4.47;2.95;;;;;;;9.59;100.00;100171.75;4999900;28;20435;-68
2023/10/22 06:26:31;;;;;;;5.95;2.78;;;;;;;9.62;100.00;100177.75;5000423;28;20120;-68
2023/10/22 06:28:56;;;;;;;4.05;2.22;;;;;;;9.69;100.00;100183.53;5001495;28;20357;-69
2023/10/22 06:31:23;;;;;;;5.68;3.58;;;;;;;9.73;100.00;100187.72;4997041;28;20484;-69
2023/10/22 06:33:48;;;;;;;4.32;2.78;;;;;;;9.80;100.00;100205.03;4997388;28;20364;-69
2023/10/22 06:36:24;;;;;;;5.10;2.20;;;;;;;9.83;100.00;100204.03;4994630;28;20080;-68
2023/10/22 06:38:50;;;;;;;2.25;2.03;;;;;;;9.77;100.00;100191.91;4996152;28;20033;-68
2023/10/22 06:41:17;;;;;;;3.90;2.38;;;;;;;9.86;100.00;100206.47;4996055;28;20175;-69
2023/10/22 06:43:43;;;;;;;5.47;2.17;;;;;;;9.88;100.00;100210.78;4999343;28;20084;-69
2023/10/22 06:46:10;;;;;;;3.08;2.33;;;;;;;9.90;100.00;100213.31;4983985;28;20029;-69
2023/10/22 06:48:36;;;;;;;4.18;2.47;;;;;;;9.95;100.00;100219.25;4982664;28;20076;-70
2023/10/22 06:51:02;;;;;;;3.50;2.13;;;;;;;9.98;100.00;100219.91;5000208;28;20053;-67
2023/10/22 06:53:29;;;;;;;3.95;2.20;;;;;;;10.03;100.00;100229.41;5003967;28;20084;-69
2023/10/22 06:55:55;;;;;;;4.45;2.20;;;;;;;10.04;100.00;100220.53;4996872;28;20052;-70
2023/10/22 06:58:20;;;;;;;2.03;1.90;;;;;;;10.06;100.00;100230.09;5004098;28;20210;-70
2023/10/22 07:00:45;;;;;;;3.55;2.30;;;;;;;10.11;100.00;100229.84;5002737;28;20156;-70
2023/10/22 07:03:14;;;;;;;2.72;2.28;;;;;;;10.13;100.00;100230.63;5001702;28;20116;-70
2023/10/22 07:05:40;;;;;;;6.03;2.60;;;;;;;10.20;100.00;100234.63;5002336;28;20111;-70
2023/10/22 07:08:06;;;;;;;2.88;2.30;;;;;;;10.25;100.00;100237.91;4995335;28;20033;-69
2023/10/22 07:10:31;;;;;;;3.05;2.35;;;;;;;10.30;100.00;100246.47;5000674;28;20022;-69
2023/10/22 07:12:57;;;;;;;6.00;2.47;;;;;;;10.25;100.00;100240.56;5000251;28;20061;-70
2023/10/22 07:15:24;;;;;;;3.30;2.45;;;;;;;10.32;100.00;100251.69;5003624;28;20048;-71
2023/10/22 07:17:50;;;;;;;3.60;2.50;;;;;;;10.33;100.00;100264.91;5002887;28;20033;-69
2023/10/22 07:20:16;;;;;;;4.00;2.67;;;;;;;10.32;100.00;100267.63;5002780;28;20037;-68
2023/10/22 07:22:44;;;;;;;5.25;2.40;;;;;;;10.29;100.00;100262.53;5003091;28;20022;-70
2023/10/22 07:25:09;;;;;;;3.45;2.17;;;;;;;10.31;100.00;100282.75;5000853;28;20033;-69
2023/10/22 07:27:35;;;;;;;3.80;2.30;;;;;;;10.34;100.00;100284.38;4984457;28;20060;-70
2023/10/22 07:30:07;;;;;;;7.47;2.90;;;;;;;10.39;100.00;100299.13;5007187;28;20057;-70
2023/10/22 07:32:32;;;;;;;5.10;2.80;;;;;;;10.47;100.00;100290.69;5014621;28;20280;-70
2023/10/22 07:34:58;;;;;;;4.95;2.60;;;;;;;10.55;100.00;100298.22;5007420;28;20034;-70
2023/10/22 07:37:23;;;;;;;5.40;2.70;;;;;;;10.62;100.00;100294.25;5000202;28;20117;-69
2023/10/22 07:39:48;;;;;;;6.78;2.72;;;;;;;10.69;100.00;100299.09;4999882;28;20036;-70
2023/10/22 07:42:14;;;;;;;5.13;2.70;;;;;;;10.79;100.00;100315.38;5003720;28;20032;-69
2023/10/22 07:44:39;;;;;;;3.83;2.88;;;;;;;10.82;100.00;100309.84;5001718;28;20026;-69
2023/10/22 07:47:05;;;;;;;4.78;2.78;;;;;;;10.92;100.00;100318.16;5002317;28;20377;-68
2023/10/22 07:49:30;;;;;;;4.05;2.53;;;;;;;10.98;100.00;100328.44;5003584;28;20068;-69
2023/10/22 07:51:55;;;;;;;4.63;2.80;;;;;;;11.03;100.00;100329.00;5003976;28;20026;-69
2023/10/22 07:54:21;;;;;;;5.22;2.80;;;;;;;11.08;100.00;100323.44;5003547;28;20036;-69
2023/10/22 07:56:46;;;;;;;4.75;2.65;;;;;;;11.09;100.00;100318.00;5002988;28;20029;-69
2023/10/22 07:59:14;;;;;;;4.90;2.45;;;;;;;11.14;100.00;100326.56;5004570;28;20037;-69
2023/10/22 08:01:39;;;;;;;3.53;2.55;;;;;;;11.21;100.00;100327.91;5002819;28;20034;-68
2023/10/22 08:04:05;;;;;;;3.85;2.10;;;;;;;11.29;100.00;100329.25;5002493;28;20157;-68
2023/10/22 08:06:30;;;;;;;3.97;2.40;;;;;;;11.33;100.00;100333.38;5002158;28;20405;-69
2023/10/22 08:08:57;;;;;;;5.38;2.55;;;;;;;11.35;100.00;100335.03;4999360;28;20026;-68
2023/10/22 08:11:22;;;;;;;3.38;2.42;;;;;;;11.40;100.00;100338.25;5000828;28;20080;-69
2023/10/22 08:13:48;;;;;;;3.72;2.70;;;;;;;11.46;100.00;100340.56;5002091;28;20064;-69
2023/10/22 08:16:13;;;;;;;4.25;2.50;;;;;;;11.62;100.00;100337.78;5002239;28;20034;-69
2023/10/22 08:18:38;;;;;;;3.80;2.30;;;;;;;11.78;100.00;100342.13;4998375;28;20038;-68
2023/10/22 08:21:06;;;;;;;3.47;2.40;;;;;;;11.90;100.00;100344.88;5003283;28;20025;-68
2023/10/22 08:23:32;;;;;;;3.20;2.22;;;;;;;11.92;100.00;100348.34;5002050;28;20426;-69
2023/10/22 08:25:58;;;;;;;4.57;2.40;;;;;;;11.98;100.00;100352.41;4984517;28;20038;-69
2023/10/22 08:28:23;;;;;;;3.90;2.45;;;;;;;12.04;100.00;100352.03;5002102;28;20034;-69
2023/10/22 08:30:49;;;;;;;4.18;2.95;;;;;;;12.18;100.00;100361.78;5000550;28;20075;-67
2023/10/22 08:33:15;;;;;;;5.05;2.35;;;;;;;12.33;100.00;100359.91;5003225;28;20030;-67
2023/10/22 08:35:41;;;;;;;3.92;2.10;;;;;;;12.38;100.00;100356.00;5001195;28;20026;-68
2023/10/22 08:38:07;;;;;;;3.63;2.60;;;;;;;12.36;100.00;100355.22;4999539;28;20104;-67
2023/10/22 08:40:41;;;;;;;3.03;2.15;;;;;;;12.32;100.00;100369.75;4997331;28;20113;-69
2023/10/22 08:43:17;;;;;;;2.92;2.22;;;;;;;12.52;100.00;100384.44;4999215;28;20027;-68
2023/10/22 08:45:46;;;;;;;3.45;2.25;;;;;;;12.70;100.00;100382.34;5000676;28;20926;-69
2023/10/22 08:48:15;;;;;;;3.03;2.50;;;;;;;12.84;100.00;100382.31;5002474;28;20049;-68
2023/10/22 08:50:46;;;;;;;2.38;2.17;;;;;;;12.85;100.00;100388.50;4977955;28;20094;-68
2023/10/22 08:53:14;;;;;;;3.13;2.63;;;;;;;12.77;100.00;100391.69;5000752;28;21333;-69
2023/10/22 08:55:46;;;;;;;4.70;2.28;;;;;;;12.75;100.00;100398.06;4993639;28;20206;-70
2023/10/22 08:58:17;;;;;;;6.18;2.33;;;;;;;12.81;100.00;100390.50;4997488;28;20033;-68
2023/10/22 09:00:47;;;;;;;3.45;2.28;;;;;;;12.78;100.00;100401.38;5000352;28;20116;-70
2023/10/22 09:03:14;;;;;;;3.45;2.35;;;;;;;12.83;100.00;100409.09;5002097;28;20040;-70
2023/10/22 09:05:39;;;;;;;4.65;2.35;;;;;;;12.92;100.00;100400.47;4994280;28;20274;-69
2023/10/22 09:08:05;;;;;;;3.75;2.30;;;;;;;13.10;100.00;100399.22;4996298;28;20026;-69
2023/10/22 09:10:32;;;;;;;3.33;2.22;;;;;;;13.21;100.00;100403.84;4996556;28;20610;-69
2023/10/22 09:13:06;;;;;;;3.72;2.67;;;;;;;13.27;100.00;100400.75;5000985;28;20112;-70
2023/10/22 09:15:46;;;;;;;5.18;2.67;;;;;;;13.44;100.00;100402.25;4997796;28;20299;-69
2023/10/22 09:18:12;;;;;;;5.25;3.15;;;;;;;13.56;100.00;100412.09;4997284;28;20034;-68
2023/10/22 09:20:38;;;;;;;3.65;1.85;;;;;;;13.62;100.00;100414.34;5000039;28;20500;-69
2023/10/22 09:23:22;;;;;;;3.60;2.50;;;;;;;13.68;100.00;100419.28;4977239;28;20117;-69
2023/10/22 09:25:57;;;;;;;2.72;1.88;;;;;;;13.87;100.00;100416.13;5001342;28;20018;-68
2023/10/22 09:28:24;;;;;;;2.17;1.90;;;;;;;13.94;100.00;100422.75;5000051;28;20041;-69
2023/10/22 09:31:07;;;;;;;2.50;1.92;;;;;;;13.93;100.00;100433.59;4993979;28;20389;-71
2023/10/22 09:33:33;;;;;;;4.00;2.15;;;;;;;13.65;100.00;100426.66;5002201;28;20752;-69
2023/10/22 09:36:06;;;;;;;2.42;2.00;;;;;;;13.43;100.00;100441.50;5004372;28;20476;-69
2023/10/22 09:38:50;;;;;;;;;;;;;;;13.48;100.00;100441.19;4999960;28;20042;-69
2023/10/22 09:41:27;;;;;;;4.53;2.20;;;;;;;13.13;100.00;100443.59;4997935;28;19921;-68
2023/10/22 09:43:54;;;;;;;2.17;1.95;;;;;;;13.06;100.00;100447.63;4990516;28;20113;-69
2023/10/22 09:46:21;;;;;;;3.78;2.40;;;;;;;13.02;100.00;100462.16;4978030;28;20053;-68
2023/10/22 09:48:47;;;;;;;2.88;2.50;;;;;;;12.96;100.00;100460.75;4982271;28;20033;-68
2023/10/22 09:51:15;;;;;;;3.63;2.38;;;;;;;12.94;100.00;100458.16;4998411;28;20026;-69
2023/10/22 09:53:51;;;;;;;2.85;2.10;;;;;;;12.99;100.00;100460.53;4996491;28;20054;-69
2023/10/22 09:56:19;;;;;;;3.05;2.13;;;;;;;13.09;100.00;100458.13;4980417;28;20041;-69
2023/10/22 09:58:47;;;;;;;5.93;2.65;;;;;;;13.24;100.00;100464.25;4998604;28;20029;-69
2023/10/22 10:01:15;;;;;;;3.03;2.40;;;;;;;13.19;100.00;100461.88;4999401;28;20041;-68
2023/10/22 10:03:43;;;;;;;3.58;2.30;;;;;;;13.15;100.00;100471.06;4991855;28;20065;-69
2023/10/22 10:06:09;;;;;;;3.92;2.40;;;;;;;13.12;100.00;100469.44;4999613;28;20030;-69
2023/10/22 10:08:39;;;;;;;3.58;2.20;;;;;;;13.22;100.00;100469.69;5000182;28;20029;-69
2023/10/22 10:11:10;;;;;;;2.85;2.30;;;;;;;13.24;100.00;100469.59;4998227;28;20355;-70
2023/10/22 10:13:35;;;;;;;3.20;2.50;;;;;;;13.13;100.00;100468.50;4997975;28;20026;-68
2023/10/22 10:16:05;;;;;;;3.60;2.53;;;;;;;13.08;100.00;100467.06;5000124;28;20057;-68
2023/10/22 10:18:59;;;;;;;3.55;2.75;;;;;;;13.08;100.00;100477.75;4999318;28;20034;-69
2023/10/22 10:21:38;;;;;;;3.63;2.47;;;;;;;13.00;100.00;100485.44;4995172;28;20448;-68
2023/10/22 10:24:27;;;;;;;3.72;2.58;;;;;;;13.06;100.00;100485.03;4998355;28;20115;-69
2023/10/22 10:27:12;;;;;;;3.05;2.75;;;;;;;13.11;100.00;100491.78;4994354;28;20036;-69
2023/10/22 10:29:38;;;;;;;10.15;3.35;;;;;;;13.08;100.00;100481.28;4994418;28;20036;-68
2023/10/22 10:32:13;;;;;;;4.85;2.78;;;;;;;13.17;100.00;100498.53;5000872;28;20033;-68
2023/10/22 10:34:40;;;;;;;4.18;2.60;;;;;;;13.17;100.00;100499.41;5001404;28;20079;-69
2023/10/22 10:37:17;;;;;;;3.08;2.40;;;;;;;13.25;100.00;100498.03;4998079;28;20033;-70
2023/10/22 10:39:44;;;;;;;2.60;2.35;;;;;;;13.28;100.00;100496.00;4997910;28;20030;-68
2023/10/22 10:42:10;;;;;;;4.55;2.75;;;;;;;13.31;100.00;100501.16;4999573;28;20439;-68
2023/10/22 10:45:00;;;;;;;3.53;2.58;;;;;;;13.31;100.00;100503.84;5000919;28;20499;-68
2023/10/22 10:47:27;;;;;;;3.92;2.88;;;;;;;13.29;100.00;100502.22;4986917;28;20496;-69
2023/10/22 10:49:53;;;;;;;4.57;2.88;;;;;;;13.35;100.00;100499.13;4990861;28;20026;-68
2023/10/22 10:52:18;;;;;;;5.95;3.38;;;;;;;13.45;100.00;100500.22;4995864;28;20056;-68
2023/10/22 10:55:08;;;;;;;5.63;3.25;;;;;;;13.75;100.00;100499.91;4998871;28;20034;-70
2023/10/22 10:57:38;;;;;;;3.25;2.70;;;;;;;14.09;100.00;100506.44;4984257;28;20261;-69
2023/10/22 11:00:06;;;;;;;4.13;2.72;;;;;;;14.26;100.00;100497.22;5000818;28;20043;-69
2023/10/22 11:02:42;;;;;;;3.80;2.65;;;;;;;14.27;100.00;100498.91;5001274;28;20443;-70
2023/10/22 11:05:08;;;;;;;2.70;2.45;;;;;;;14.30;100.00;100496.03;4998229;28;20786;-69
2023/10/22 11:07:34;;;;;;;3.00;2.70;;;;;;;14.57;100.00;100492.34;4996137;28;20449;-69
2023/10/22 11:10:06;;;;;;;3.08;2.70;;;;;;;14.50;100.00;100488.41;4993539;28;20117;-70
2023/10/22 11:12:32;;;;;;;3.07;2.37;;;;;;;14.47;100.00;100496.63;5000791;28;20076;-69
2023/10/22 11:14:57;;;;;;;3.22;2.38;;;;;;;14.52;100.00;100495.38;5002399;28;20624;-70
2023/10/22 11:17:23;;;;;;;5.03;2.80;;;;;;;14.53;100.00;100502.41;4995774;28;20315;-69
2023/10/22 11:19:52;;;;;;;3.13;2.42;;;;;;;14.65;100.00;100508.72;4997087;28;20026;-69
2023/10/22 11:22:17;;;;;;;5.03;2.85;;;;;;;14.67;100.00;100504.09;4995104;28;20485;-69